Time;durP1;ratioP1;P1;durP2;ratioP2;P2;SDS_P1;SDS_P2;PMS_P1;PMS_P2;Temp;Humidity;BMP_temperature;BMP_pressure;BME280_temperature;BME280_humidity;BME280_pressure;Samples;Min_cycle;Max_cycle;Signal;HPM_P1;HPM_P2
2022/01/14 00:00:19;;;;;;;43.75;29.38;;;;;;;2.73;100.00;100111.50;2107249;28;20205;-72
2022/01/14 00:01:20;;;;;;;43.40;29.07;;;;;;;2.78;100.00;100095.84;2107441;28;20225;-72
2022/01/14 00:02:22;;;;;;;49.53;30.33;;;;;;;2.84;100.00;100105.50;2107352;28;20208;-73
2022/01/14 00:03:23;;;;;;;48.08;29.35;;;;;;;2.81;100.00;100124.41;2098937;28;20661;-72
2022/01/14 00:04:25;;;;;;;41.53;30.03;;;;;;;2.76;100.00;100105.78;2098827;28;20638;-72
2022/01/14 00:05:26;;;;;;;46.55;29.48;;;;;;;2.79;100.00;100105.38;2107569;28;20252;-73
2022/01/14 00:06:28;;;;;;;43.63;29.53;;;;;;;2.81;100.00;100108.59;2106907;28;20379;-73
2022/01/14 00:07:30;;;;;;;45.30;30.08;;;;;;;2.75;100.00;100092.84;2107245;28;20205;-73
2022/01/14 00:08:32;;;;;;;43.20;28.73;;;;;;;2.78;100.00;100103.75;2107273;28;20196;-73
2022/01/14 00:09:35;;;;;;;44.35;28.27;;;;;;;2.80;100.00;100106.97;2107588;28;20205;-74
2022/01/14 00:10:36;;;;;;;45.42;29.90;;;;;;;2.78;100.00;100106.41;2107875;28;20190;-73
2022/01/14 00:11:45;;;;;;;48.33;29.17;;;;;;;2.76;100.00;100116.31;2107622;28;20249;-73
2022/01/14 00:12:54;;;;;;;45.47;30.17;;;;;;;2.78;100.00;100150.34;2107261;28;20185;-73
2022/01/14 00:14:07;;;;;;;41.58;27.73;;;;;;;2.80;100.00;100091.16;2099860;28;20197;-74
2022/01/14 00:15:24;;;;;;;43.03;29.10;;;;;;;2.76;100.00;100104.97;2100545;28;20195;-73
2022/01/14 00:16:26;;;;;;;44.88;29.58;;;;;;;2.78;100.00;100092.38;2107648;28;20181;-73
2022/01/14 00:17:28;;;;;;;41.35;29.35;;;;;;;2.77;100.00;100104.75;2107906;28;20205;-73
2022/01/14 00:18:30;;;;;;;46.75;29.25;;;;;;;2.76;100.00;100104.97;2107256;28;20602;-73
2022/01/14 00:19:34;;;;;;;46.30;30.38;;;;;;;2.75;100.00;100098.09;2099076;28;20664;-74
2022/01/14 00:20:35;;;;;;;44.15;29.02;;;;;;;2.72;100.00;100078.28;2107265;28;20190;-74
2022/01/14 00:21:40;;;;;;;43.43;29.50;;;;;;;2.73;100.00;100106.22;2107213;28;20270;-73
2022/01/14 00:22:42;;;;;;;47.40;30.33;;;;;;;2.69;100.00;100099.78;2107173;28;20256;-74
2022/01/14 00:23:45;;;;;;;41.40;29.23;;;;;;;2.72;100.00;100095.91;2098820;28;20296;-74
2022/01/14 00:31:44;;;;;;;46.00;31.27;;;;;;;2.74;100.00;100080.69;2107463;28;20185;-72
2022/01/14 00:32:56;;;;;;;39.20;29.48;;;;;;;2.74;100.00;100086.75;2107700;28;20194;-72
2022/01/14 00:33:57;;;;;;;46.63;30.92;;;;;;;2.72;100.00;100094.09;2107946;28;20174;-72
2022/01/14 00:34:59;;;;;;;43.97;29.08;;;;;;;2.78;100.00;100093.22;2107003;28;20203;-72
2022/01/14 00:36:00;;;;;;;48.10;30.80;;;;;;;2.80;100.00;100091.16;2097894;28;20194;-72
2022/01/14 00:37:01;;;;;;;42.97;29.20;;;;;;;2.76;100.00;100086.53;2098590;28;20197;-72
2022/01/14 00:38:04;;;;;;;41.25;29.58;;;;;;;2.72;100.00;100099.34;2098631;28;20261;-72
2022/01/14 00:39:05;;;;;;;44.33;29.58;;;;;;;2.74;100.00;100099.13;2107029;28;20238;-72
2022/01/14 00:40:08;;;;;;;47.17;31.38;;;;;;;2.71;100.00;100097.75;2107650;28;20193;-72
2022/01/14 00:41:09;;;;;;;44.67;30.83;;;;;;;2.69;100.00;100094.50;2107765;28;20190;-72
2022/01/14 00:42:11;;;;;;;42.95;30.05;;;;;;;2.74;100.00;100097.31;2107605;28;20211;-72
2022/01/14 00:43:13;;;;;;;45.92;29.75;;;;;;;2.73;100.00;100090.44;2107823;28;20281;-72
2022/01/14 00:44:17;;;;;;;45.90;30.77;;;;;;;2.71;100.00;100096.94;2107675;28;20707;-71
2022/01/14 00:45:20;;;;;;;46.15;30.58;;;;;;;2.73;100.00;100105.44;2107546;28;20209;-72
2022/01/14 00:46:22;;;;;;;46.97;30.48;;;;;;;2.67;100.00;100111.56;2107573;28;20648;-72
2022/01/14 00:47:22;;;;;;;48.05;29.85;;;;;;;2.65;100.00;100108.34;2106862;28;20193;-72
2022/01/14 00:48:24;;;;;;;41.97;29.97;;;;;;;2.66;100.00;100120.50;2098845;28;20202;-72
2022/01/14 00:49:25;;;;;;;44.95;30.23;;;;;;;2.65;100.00;100119.69;2098523;28;20198;-72
2022/01/14 00:50:27;;;;;;;44.37;29.97;;;;;;;2.64;100.00;100122.56;2106861;28;20193;-72
2022/01/14 00:51:28;;;;;;;46.42;31.10;;;;;;;2.59;100.00;100123.19;2106554;28;20232;-72
2022/01/14 00:52:31;;;;;;;39.00;28.97;;;;;;;2.67;100.00;100111.56;2106848;28;20228;-72
2022/01/14 00:53:32;;;;;;;43.72;30.42;;;;;;;2.67;100.00;100133.44;2098734;28;20244;-72
2022/01/14 00:54:37;;;;;;;43.53;30.13;;;;;;;2.60;100.00;100127.44;2106941;28;20185;-71
2022/01/14 00:55:55;;;;;;;44.03;30.75;;;;;;;2.60;100.00;100129.25;2107652;28;20570;-72
2022/01/14 00:57:15;;;;;;;45.40;30.42;;;;;;;2.61;100.00;100136.16;2106803;28;20205;-72
2022/01/14 00:59:43;;;;;;;45.33;30.50;;;;;;;2.61;100.00;100134.34;2107780;28;20196;-73
2022/01/14 01:00:43;;;;;;;45.22;29.20;;;;;;;2.64;100.00;100159.44;2106721;28;20209;-73
2022/01/14 01:01:50;;;;;;;40.93;28.83;;;;;;;2.58;100.00;100137.38;2107034;28;20206;-73
2022/01/14 01:02:51;;;;;;;42.08;28.15;;;;;;;2.65;100.00;100127.59;2107522;28;20254;-73
2022/01/14 01:03:53;;;;;;;44.77;28.73;;;;;;;2.64;100.00;100144.44;2107408;28;20193;-73
2022/01/14 01:04:55;;;;;;;47.90;29.20;;;;;;;2.60;100.00;100127.44;2107326;28;20431;-73
2022/01/14 01:05:57;;;;;;;41.33;29.00;;;;;;;2.61;100.00;100136.97;2106293;28;20193;-73
2022/01/14 01:06:59;;;;;;;42.22;30.00;;;;;;;2.62;100.00;100127.25;2098520;28;20225;-73
2022/01/14 01:08:05;;;;;;;49.25;30.02;;;;;;;2.63;100.00;100126.22;2098413;28;20197;-73
2022/01/14 01:09:10;;;;;;;51.25;30.83;;;;;;;2.62;100.00;100138.56;2107084;28;20645;-73
2022/01/14 01:10:13;;;;;;;48.00;29.45;;;;;;;2.57;100.00;100143.69;2107061;28;20285;-73
2022/01/14 01:11:14;;;;;;;43.25;29.67;;;;;;;2.57;100.00;100109.44;2106638;28;20194;-73
2022/01/14 01:12:28;;;;;;;45.20;29.50;;;;;;;2.60;100.00;100106.34;2106747;28;20224;-73
2022/01/14 01:13:34;;;;;;;47.63;30.75;;;;;;;2.58;100.00;100092.59;2100068;28;20598;-73
2022/01/14 01:14:42;;;;;;;48.30;30.63;;;;;;;2.53;100.00;100122.25;2099094;28;20273;-73
2022/01/14 01:15:45;;;;;;;43.60;30.85;;;;;;;2.56;100.00;100078.84;2107012;28;20340;-73
2022/01/14 01:16:48;;;;;;;47.75;30.98;;;;;;;2.51;100.00;100086.59;2107501;28;20186;-73
2022/01/14 01:17:49;;;;;;;44.90;29.50;;;;;;;2.50;100.00;100091.06;2106615;28;20248;-73
2022/01/14 01:18:51;;;;;;;43.80;28.93;;;;;;;2.50;100.00;100075.25;2098175;28;20653;-73
2022/01/14 01:19:51;;;;;;;45.47;31.88;;;;;;;2.49;100.00;100093.91;2106701;28;20736;-73
2022/01/14 01:20:53;;;;;;;46.07;30.77;;;;;;;2.46;100.00;100125.97;2106022;28;20587;-73
2022/01/14 01:21:54;;;;;;;52.63;32.38;;;;;;;2.45;100.00;100087.47;2097826;28;20206;-73
2022/01/14 01:23:08;;;;;;;43.50;29.70;;;;;;;2.48;100.00;100081.75;2099843;28;20179;-73
2022/01/14 01:24:22;;;;;;;50.45;31.73;;;;;;;2.45;100.00;100084.84;2100018;28;20700;-73
2022/01/14 01:25:26;;;;;;;45.35;30.95;;;;;;;2.44;100.00;100091.94;2106669;28;20281;-73
2022/01/14 01:26:31;;;;;;;47.90;32.15;;;;;;;2.39;100.00;100070.72;2106594;28;20284;-73
2022/01/14 01:27:37;;;;;;;46.80;31.63;;;;;;;2.41;100.00;100071.28;2106724;28;20182;-73
2022/01/14 01:28:54;;;;;;;48.08;31.02;;;;;;;2.40;100.00;100100.47;2107269;28;20178;-73
2022/01/14 01:30:11;;;;;;;43.58;30.35;;;;;;;2.41;100.00;100063.38;2107311;28;20184;-73
2022/01/14 01:32:29;;;;;;;44.58;31.08;;;;;;;2.41;100.00;100108.16;2105751;28;20193;-72
2022/01/14 01:33:31;;;;;;;45.78;31.10;;;;;;;2.40;100.00;100087.31;2105981;28;20681;-73
2022/01/14 01:34:35;;;;;;;54.67;32.17;;;;;;;2.39;100.00;100077.81;2098248;28;20186;-73
2022/01/14 01:35:36;;;;;;;49.65;31.50;;;;;;;2.39;100.00;100088.34;2106468;28;20589;-73
2022/01/14 01:36:40;;;;;;;49.87;30.80;;;;;;;2.37;100.00;100099.09;2106300;28;20225;-73
2022/01/14 01:37:42;;;;;;;46.67;31.77;;;;;;;2.34;100.00;100077.63;2107306;28;20560;-73
2022/01/14 01:38:43;;;;;;;44.35;30.67;;;;;;;2.35;100.00;100108.25;2107416;28;20536;-73
2022/01/14 01:39:44;;;;;;;44.50;30.27;;;;;;;2.37;100.00;100083.28;2107404;28;20282;-73
2022/01/14 01:40:46;;;;;;;44.95;30.77;;;;;;;2.42;100.00;100098.44;2106550;28;20201;-73
2022/01/14 01:41:50;;;;;;;41.20;29.38;;;;;;;2.39;100.00;100083.88;2098170;28;20293;-73
2022/01/14 01:42:53;;;;;;;46.25;31.10;;;;;;;2.37;100.00;100079.84;2106573;28;20588;-72
2022/01/14 01:43:56;;;;;;;49.85;31.38;;;;;;;2.36;100.00;100094.03;2106483;28;20194;-73
2022/01/14 01:44:59;;;;;;;49.30;30.95;;;;;;;2.37;100.00;100085.94;2106574;28;20185;-73
2022/01/14 01:46:00;;;;;;;43.25;29.60;;;;;;;2.40;100.00;100093.38;2107069;28;20293;-73
2022/01/14 01:47:02;;;;;;;44.67;30.48;;;;;;;2.38;100.00;100099.91;2107220;28;20667;-72
2022/01/14 01:48:04;;;;;;;45.97;30.63;;;;;;;2.38;100.00;100102.53;2107162;28;20190;-72
2022/01/14 01:49:11;;;;;;;47.53;30.85;;;;;;;2.39;100.00;100088.34;2107157;28;20185;-73
2022/01/14 01:50:14;;;;;;;43.03;29.70;;;;;;;2.36;100.00;100110.66;2107134;28;20261;-73
2022/01/14 01:51:17;;;;;;;43.92;30.73;;;;;;;2.33;100.00;100082.09;2106718;28;20228;-73
2022/01/14 01:52:19;;;;;;;45.35;32.25;;;;;;;2.40;100.00;100093.38;2106405;28;20193;-72
2022/01/14 01:53:20;;;;;;;52.60;31.13;;;;;;;2.38;100.00;100107.78;2098071;28;20205;-73
2022/01/14 01:54:23;;;;;;;46.47;31.50;;;;;;;2.34;100.00;100143.47;2106508;28;20708;-73
2022/01/14 01:55:24;;;;;;;50.15;31.67;;;;;;;2.32;100.00;100134.97;2106356;28;20209;-73
2022/01/14 01:56:27;;;;;;;47.58;31.27;;;;;;;2.32;100.00;100098.13;2106280;28;20285;-72
2022/01/14 01:57:30;;;;;;;48.95;31.60;;;;;;;2.29;100.00;100107.25;2106477;28;20246;-72
2022/01/14 01:58:36;;;;;;;45.95;31.30;;;;;;;2.31;100.00;100123.66;2107094;28;20194;-72
2022/01/14 01:59:39;;;;;;;47.97;32.17;;;;;;;2.26;100.00;100105.06;2106413;28;20756;-73
2022/01/14 02:00:40;;;;;;;50.85;32.00;;;;;;;2.21;100.00;100102.28;2106609;28;20190;-73
2022/01/14 02:01:42;;;;;;;44.50;30.13;;;;;;;2.22;100.00;100111.78;2106360;28;20224;-73
2022/01/14 02:02:46;;;;;;;45.58;31.85;;;;;;;2.21;100.00;100100.44;2106571;28;20675;-72
2022/01/14 02:03:48;;;;;;;47.55;33.10;;;;;;;2.19;100.00;100102.50;2107248;28;20708;-73
2022/01/14 02:04:50;;;;;;;46.75;31.88;;;;;;;2.18;100.00;100102.72;2106418;28;20264;-73
2022/01/14 02:05:51;;;;;;;46.75;31.38;;;;;;;2.15;100.00;100103.91;2106389;28;20293;-73
2022/01/14 02:06:55;;;;;;;49.65;32.75;;;;;;;2.18;100.00;100107.97;2106658;28;20221;-73
2022/01/14 02:07:55;;;;;;;51.58;32.03;;;;;;;2.21;100.00;100095.16;2106338;28;20197;-73
2022/01/14 02:08:57;;;;;;;50.40;31.90;;;;;;;2.19;100.00;100081.44;2106446;28;20188;-73
2022/01/14 02:09:59;;;;;;;49.03;32.08;;;;;;;2.13;100.00;100100.72;2106233;28;20201;-73
2022/01/14 02:11:02;;;;;;;49.95;32.00;;;;;;;2.14;100.00;100083.88;2106136;28;20200;-73
2022/01/14 02:12:09;;;;;;;50.03;32.22;;;;;;;2.13;100.00;100105.97;2106677;28;20193;-73
2022/01/14 02:13:11;;;;;;;54.65;33.65;;;;;;;2.15;100.00;100088.13;2107174;28;20166;-73
2022/01/14 02:14:26;;;;;;;49.20;33.50;;;;;;;2.13;100.00;100095.44;2107166;28;20230;-73
2022/01/14 02:15:43;;;;;;;48.90;32.47;;;;;;;2.08;100.00;100071.56;2107211;28;20177;-73
2022/01/14 02:17:15;;;;;;;49.53;32.85;;;;;;;2.10;100.00;100069.56;2106322;28;20190;-73
2022/01/14 02:18:30;;;;;;;57.80;33.13;;;;;;;2.11;100.00;100062.47;2106274;28;20640;-73
2022/01/14 02:19:44;;;;;;;47.33;33.10;;;;;;;2.15;100.00;100046.00;2106575;28;20169;-73
2022/01/14 02:22:11;;;;;;;57.13;34.33;;;;;;;2.05;100.00;100048.34;2106843;28;20205;-72
2022/01/14 02:23:13;;;;;;;55.17;34.67;;;;;;;2.07;100.00;100045.47;2107178;28;20169;-73
2022/01/14 02:24:34;;;;;;;50.33;33.17;;;;;;;2.04;100.00;100052.00;2107052;28;20242;-73
2022/01/14 02:25:36;;;;;;;48.15;32.22;;;;;;;2.02;100.00;100046.13;2106198;28;20198;-73
2022/01/14 02:26:48;;;;;;;57.25;35.83;;;;;;;2.02;100.00;100051.41;2097987;28;20281;-73
2022/01/14 02:27:50;;;;;;;53.65;32.92;;;;;;;2.01;100.00;100041.91;2099391;28;20257;-73
2022/01/14 02:28:52;;;;;;;52.65;35.78;;;;;;;2.01;100.00;100044.53;2098067;28;20657;-73
2022/01/14 02:29:52;;;;;;;49.97;33.72;;;;;;;1.98;100.00;100034.41;2106450;28;20215;-73
2022/01/14 02:30:54;;;;;;;56.63;34.53;;;;;;;2.10;100.00;100042.44;2107180;28;20185;-73
2022/01/14 02:31:56;;;;;;;54.92;35.00;;;;;;;2.05;100.00;100040.44;2106958;28;20337;-73
2022/01/14 02:32:58;;;;;;;51.92;33.63;;;;;;;2.02;100.00;100038.25;2106966;28;20209;-73
2022/01/14 02:33:59;;;;;;;50.67;32.70;;;;;;;2.03;100.00;100041.69;2106317;28;20237;-73
2022/01/14 02:35:02;;;;;;;56.40;33.77;;;;;;;2.02;100.00;100034.81;2097819;28;20198;-73
2022/01/14 02:36:04;;;;;;;55.58;34.17;;;;;;;1.98;100.00;100031.78;2097552;28;20197;-73
2022/01/14 02:37:05;;;;;;;54.65;33.85;;;;;;;2.02;100.00;100040.88;2106566;28;20697;-73
2022/01/14 02:38:08;;;;;;;58.00;33.20;;;;;;;1.99;100.00;100031.56;2106923;28;20556;-73
2022/01/14 02:39:10;;;;;;;53.63;35.30;;;;;;;1.96;100.00;100034.63;2106209;28;20559;-73
2022/01/14 02:40:12;;;;;;;50.67;34.00;;;;;;;1.94;100.00;100025.34;2106298;28;20193;-73
2022/01/14 02:41:15;;;;;;;57.10;34.75;;;;;;;1.92;100.00;100024.78;2107136;28;20276;-73
2022/01/14 02:42:17;;;;;;;55.88;34.58;;;;;;;1.91;100.00;100020.50;2106948;28;20662;-73
2022/01/14 02:43:17;;;;;;;51.53;33.00;;;;;;;1.95;100.00;100043.56;2106151;28;20209;-73
2022/01/14 02:44:25;;;;;;;56.50;35.23;;;;;;;1.94;100.00;100028.00;2098264;28;20281;-73
2022/01/14 02:45:30;;;;;;;54.38;33.60;;;;;;;1.94;100.00;100028.78;2108214;28;20174;-73
2022/01/14 02:46:37;;;;;;;47.35;32.30;;;;;;;1.91;100.00;100028.41;2108598;28;20675;-74
2022/01/14 02:47:42;;;;;;;49.08;34.38;;;;;;;1.95;100.00;100032.22;2108883;28;20583;-73
2022/01/14 02:48:43;;;;;;;49.72;33.22;;;;;;;1.93;100.00;100023.75;2107881;28;20209;-73
2022/01/14 02:49:45;;;;;;;54.07;34.73;;;;;;;1.96;100.00;100031.19;2107918;28;20193;-73
2022/01/14 02:50:55;;;;;;;51.75;33.83;;;;;;;1.94;100.00;100046.41;2108509;28;20200;-73
2022/01/14 02:52:02;;;;;;;49.65;32.50;;;;;;;1.95;100.00;100011.19;2107452;28;20214;-73
2022/01/14 02:53:24;;;;;;;49.38;33.38;;;;;;;1.94;100.00;100018.25;2099845;28;20202;-73
2022/01/14 02:54:31;;;;;;;56.28;35.25;;;;;;;1.92;100.00;100032.66;2108138;28;20188;-73
2022/01/14 02:55:34;;;;;;;57.20;34.10;;;;;;;1.85;100.00;100010.88;2108544;28;20207;-73
2022/01/14 02:56:37;;;;;;;57.33;34.05;;;;;;;1.87;100.00;100016.72;2107359;28;20229;-73
2022/01/14 02:57:37;;;;;;;54.92;33.42;;;;;;;1.85;100.00;100018.75;2107964;28;20190;-73
2022/01/14 02:58:43;;;;;;;55.57;34.23;;;;;;;1.85;100.00;100016.13;2108504;28;20192;-73
2022/01/14 02:59:44;;;;;;;54.13;33.83;;;;;;;1.90;100.00;100042.59;2107828;28;20247;-73
2022/01/14 03:00:46;;;;;;;54.13;33.70;;;;;;;1.89;100.00;100023.34;2099428;28;20236;-73
2022/01/14 03:01:49;;;;;;;57.05;34.42;;;;;;;1.88;100.00;100021.75;2107740;28;20221;-73
2022/01/14 03:02:52;;;;;;;53.60;34.13;;;;;;;1.88;100.00;100015.69;2108520;28;20196;-73
2022/01/14 03:03:54;;;;;;;58.95;35.35;;;;;;;1.90;100.00;100016.25;2107689;28;20568;-73
2022/01/14 03:04:57;;;;;;;52.60;33.78;;;;;;;1.88;100.00;100034.09;2107765;28;20262;-73
2022/01/14 03:06:01;;;;;;;55.78;34.15;;;;;;;1.86;100.00;100021.16;2107679;28;20197;-72
2022/01/14 03:07:03;;;;;;;52.50;33.25;;;;;;;1.82;100.00;100011.28;2108664;28;20257;-72
2022/01/14 03:08:05;;;;;;;49.05;32.53;;;;;;;1.83;100.00;100010.28;2107660;28;20285;-72
2022/01/14 03:09:06;;;;;;;52.42;33.72;;;;;;;1.80;100.00;100019.38;2107770;28;20531;-73
2022/01/14 03:10:09;;;;;;;52.88;34.05;;;;;;;1.81;100.00;100009.66;2108368;28;20246;-73
2022/01/14 03:11:12;;;;;;;53.25;33.95;;;;;;;1.83;100.00;100010.28;2107422;28;20228;-73
2022/01/14 03:12:13;;;;;;;51.92;32.65;;;;;;;1.79;100.00;100014.34;2099542;28;20704;-73
2022/01/14 03:13:16;;;;;;;52.53;34.13;;;;;;;1.78;100.00;100025.88;2107754;28;20641;-73
2022/01/14 03:14:22;;;;;;;52.13;34.38;;;;;;;1.74;100.00;100038.69;2107771;28;20221;-73
2022/01/14 03:15:25;;;;;;;50.83;33.80;;;;;;;1.76;100.00;100007.69;2107829;28;20174;-73
2022/01/14 03:16:27;;;;;;;54.22;33.95;;;;;;;1.78;100.00;100025.88;2107635;28;20302;-73
2022/01/14 03:17:30;;;;;;;53.15;34.92;;;;;;;1.80;100.00;100023.84;2107702;28;20200;-73
2022/01/14 03:18:41;;;;;;;56.10;36.13;;;;;;;1.78;100.00;100012.75;2108409;28;20608;-72
2022/01/14 03:19:42;;;;;;;53.63;35.05;;;;;;;1.78;100.00;100003.03;2107649;28;20197;-73
2022/01/14 03:20:50;;;;;;;57.20;36.42;;;;;;;1.74;100.00;100009.75;2107713;28;20278;-73
2022/01/14 03:22:03;;;;;;;58.17;36.28;;;;;;;1.80;100.00;100011.50;2108100;28;20222;-73
2022/01/14 03:23:07;;;;;;;55.50;35.60;;;;;;;1.74;100.00;100001.84;2107593;28;20198;-73
2022/01/14 03:24:20;;;;;;;57.10;34.95;;;;;;;1.78;100.00;100015.38;2107679;28;20671;-73
2022/01/14 03:26:40;;;;;;;53.78;34.50;;;;;;;1.79;100.00;100024.88;2106470;28;20221;-73
2022/01/14 03:27:42;;;;;;;50.58;35.22;;;;;;;1.74;100.00;100020.25;2107860;28;20675;-73
2022/01/14 03:28:44;;;;;;;52.50;34.58;;;;;;;1.73;100.00;100016.00;2107851;28;20197;-74
2022/01/14 03:29:45;;;;;;;55.20;33.63;;;;;;;1.73;100.00;100010.72;2107623;28;20196;-73
2022/01/14 03:30:47;;;;;;;52.57;34.67;;;;;;;1.74;100.00;100011.53;2107521;28;20201;-73
2022/01/14 03:31:49;;;;;;;53.35;35.17;;;;;;;1.73;100.00;100005.47;2107604;28;20194;-73
2022/01/14 03:32:50;;;;;;;55.67;36.22;;;;;;;1.75;100.00;100002.66;2108215;28;20186;-73
2022/01/14 03:33:53;;;;;;;60.17;36.17;;;;;;;1.70;100.00;100004.09;2107516;28;20684;-73
2022/01/14 03:34:54;;;;;;;52.67;35.42;;;;;;;1.71;100.00;100012.78;2099412;28;20205;-73
2022/01/14 03:35:56;;;;;;;55.77;35.57;;;;;;;1.67;100.00;100017.69;2098502;28;20337;-73
2022/01/14 03:37:02;;;;;;;54.65;36.10;;;;;;;1.67;100.00;100004.53;2107722;28;20193;-73
2022/01/14 03:38:04;;;;;;;56.97;35.85;;;;;;;1.71;100.00;100015.41;2107507;28;20226;-73
2022/01/14 03:39:06;;;;;;;56.83;35.88;;;;;;;1.68;100.00;100024.53;2107545;28;20209;-73
2022/01/14 03:40:08;;;;;;;54.53;34.90;;;;;;;1.67;100.00;100012.41;2107561;28;20231;-73
2022/01/14 03:41:10;;;;;;;55.30;36.33;;;;;;;1.69;100.00;100002.47;2108128;28;20546;-73
2022/01/14 03:42:11;;;;;;;55.58;36.33;;;;;;;1.75;100.00;100013.19;2108128;28;20189;-73
2022/01/14 03:43:15;;;;;;;53.87;35.53;;;;;;;1.72;100.00;99992.53;2108084;28;20187;-73
2022/01/14 03:44:17;;;;;;;58.15;34.80;;;;;;;1.68;100.00;100008.75;2107990;28;20193;-73
2022/01/14 03:45:19;;;;;;;61.00;35.58;;;;;;;1.73;100.00;99988.88;2108087;28;20269;-73
2022/01/14 03:46:19;;;;;;;50.00;34.35;;;;;;;1.73;100.00;99986.25;2107992;28;20209;-73
2022/01/14 03:47:21;;;;;;;52.10;34.40;;;;;;;1.76;100.00;99977.94;2108091;28;20189;-73
2022/01/14 03:48:24;;;;;;;50.88;35.08;;;;;;;1.73;100.00;99978.38;2107360;28;20618;-73
2022/01/14 03:49:25;;;;;;;53.08;35.30;;;;;;;1.75;100.00;99971.09;2098451;28;20194;-73
2022/01/14 03:50:28;;;;;;;55.92;35.00;;;;;;;1.69;100.00;99989.31;2107334;28;20202;-73
2022/01/14 03:51:30;;;;;;;54.50;35.03;;;;;;;1.75;100.00;99977.16;2098786;28;20222;-73
2022/01/14 03:52:32;;;;;;;50.88;34.25;;;;;;;1.76;100.00;99972.69;2099069;28;20202;-73
2022/01/14 03:53:34;;;;;;;52.00;34.72;;;;;;;1.70;100.00;99996.19;2107452;28;20689;-73
2022/01/14 03:54:35;;;;;;;53.58;36.13;;;;;;;1.73;100.00;99988.88;2107436;28;20186;-73
2022/01/14 03:55:39;;;;;;;52.80;35.10;;;;;;;1.73;100.00;99981.00;2107200;28;20200;-73
2022/01/14 03:56:41;;;;;;;54.80;35.55;;;;;;;1.70;100.00;99971.72;2098983;28;20194;-73
2022/01/14 03:57:46;;;;;;;49.00;34.17;;;;;;;1.74;100.00;99979.97;2107399;28;20544;-74
2022/01/14 03:58:48;;;;;;;52.20;34.60;;;;;;;1.73;100.00;99983.63;2107151;28;20202;-73
2022/01/14 03:59:49;;;;;;;49.28;33.50;;;;;;;1.74;100.00;99975.53;2107388;28;20190;-73
2022/01/14 04:00:50;;;;;;;48.40;34.37;;;;;;;1.73;100.00;99973.09;2108111;28;20269;-73
2022/01/14 04:01:52;;;;;;;52.03;34.83;;;;;;;1.78;100.00;99989.06;2108041;28;20186;-72
2022/01/14 04:02:54;;;;;;;49.83;34.30;;;;;;;1.76;100.00;99983.22;2107307;28;20220;-73
2022/01/14 04:03:56;;;;;;;53.75;35.20;;;;;;;1.73;100.00;99989.69;2107318;28;20186;-73
2022/01/14 04:04:59;;;;;;;53.38;34.67;;;;;;;1.69;100.00;99997.22;2107917;28;20196;-73
2022/01/14 04:05:59;;;;;;;51.50;35.30;;;;;;;1.76;100.00;99977.94;2106551;28;20239;-73
2022/01/14 04:07:01;;;;;;;50.63;33.57;;;;;;;1.77;100.00;99982.19;2107245;28;20198;-73
2022/01/14 04:08:05;;;;;;;51.90;34.33;;;;;;;1.72;100.00;99968.88;2107530;28;20644;-72
2022/01/14 04:09:07;;;;;;;48.75;33.50;;;;;;;1.67;100.00;99986.13;2107252;28;20194;-73
2022/01/14 04:10:12;;;;;;;53.30;35.05;;;;;;;1.72;100.00;99964.41;2107426;28;20221;-72
2022/01/14 04:11:14;;;;;;;51.00;34.17;;;;;;;1.78;100.00;99968.81;2107765;28;20529;-74
2022/01/14 04:12:28;;;;;;;54.07;35.67;;;;;;;1.77;100.00;99964.59;2091390;28;20198;-73
2022/01/14 04:13:39;;;;;;;51.92;34.50;;;;;;;1.79;100.00;99956.47;2091615;28;20863;-73
2022/01/14 04:16:00;;;;;;;44.88;32.78;;;;;;;1.74;100.00;99964.19;2090591;28;20649;-73
2022/01/14 04:17:05;;;;;;;43.65;33.08;;;;;;;1.72;100.00;99958.34;2090760;28;20312;-73
2022/01/14 04:18:08;;;;;;;46.08;34.28;;;;;;;1.72;100.00;99956.53;2090621;28;20191;-73
2022/01/14 04:19:09;;;;;;;49.72;34.88;;;;;;;1.67;100.00;99954.56;2090520;28;20656;-73
2022/01/14 04:20:11;;;;;;;57.43;36.00;;;;;;;1.69;100.00;99949.06;2082229;28;20195;-74
2022/01/14 04:21:13;;;;;;;51.88;34.90;;;;;;;1.69;100.00;99965.66;2090083;28;20258;-73
2022/01/14 04:22:14;;;;;;;48.05;33.85;;;;;;;1.72;100.00;99971.50;2090520;28;20206;-73
2022/01/14 04:23:21;;;;;;;50.33;33.60;;;;;;;1.68;100.00;99960.63;2090510;28;20209;-73
2022/01/14 04:24:23;;;;;;;49.90;34.67;;;;;;;1.67;100.00;99959.00;2090465;28;20206;-73
2022/01/14 04:25:26;;;;;;;50.78;34.55;;;;;;;1.68;100.00;99939.56;2090568;28;20194;-73
2022/01/14 04:26:29;;;;;;;52.53;35.15;;;;;;;1.66;100.00;99945.06;2090781;28;20223;-73
2022/01/14 04:27:29;;;;;;;51.55;34.42;;;;;;;1.70;100.00;99964.63;2090530;28;20227;-73
2022/01/14 04:28:34;;;;;;;50.20;35.07;;;;;;;1.73;100.00;99952.06;2091092;28;20191;-73
2022/01/14 04:29:34;;;;;;;47.88;33.47;;;;;;;1.79;100.00;99972.25;2091105;28;20260;-73
2022/01/14 04:30:39;;;;;;;47.80;34.87;;;;;;;1.75;100.00;99942.16;2091103;28;20191;-73
2022/01/14 04:31:40;;;;;;;49.00;34.28;;;;;;;1.80;100.00;99944.91;2090594;28;20199;-73
2022/01/14 04:32:42;;;;;;;51.07;34.73;;;;;;;1.78;100.00;99952.22;2090335;28;20675;-73
2022/01/14 04:33:44;;;;;;;48.78;34.60;;;;;;;1.77;100.00;99958.50;2090586;28;20599;-73
2022/01/14 04:34:45;;;;;;;46.08;34.03;;;;;;;1.79;100.00;99951.22;2091263;28;20199;-73
2022/01/14 04:35:46;;;;;;;45.70;33.43;;;;;;;1.76;100.00;99947.19;2091262;28;20211;-73
2022/01/14 04:36:49;;;;;;;47.25;33.63;;;;;;;1.76;100.00;99935.88;2090865;28;20219;-73
2022/01/14 04:37:50;;;;;;;47.95;33.13;;;;;;;1.75;100.00;99945.59;2091066;28;20543;-73
2022/01/14 04:38:55;;;;;;;46.53;32.93;;;;;;;1.74;100.00;99949.25;2090349;28;20261;-73
2022/01/14 04:39:55;;;;;;;47.78;34.00;;;;;;;1.73;100.00;99946.81;2082419;28;20196;-73
2022/01/14 04:40:57;;;;;;;51.20;33.13;;;;;;;1.75;100.00;99947.41;2090591;28;20194;-73
2022/01/14 04:41:58;;;;;;;45.40;33.45;;;;;;;1.75;100.00;99944.78;2090258;28;20203;-73
2022/01/14 04:43:00;;;;;;;50.22;35.50;;;;;;;1.74;100.00;99935.25;2082060;28;20785;-73
2022/01/14 04:44:03;;;;;;;47.08;35.00;;;;;;;1.76;100.00;99935.88;2082133;28;20200;-73
2022/01/14 04:45:08;;;;;;;50.83;35.15;;;;;;;1.74;100.00;99985.22;2090637;28;20546;-73
2022/01/14 04:47:44;;;;;;;47.28;34.83;;;;;;;1.78;100.00;99932.00;2091187;28;20183;-73
2022/01/14 04:48:44;;;;;;;48.80;34.63;;;;;;;1.76;100.00;99930.59;2090947;28;20183;-74
2022/01/14 04:49:46;;;;;;;49.37;34.77;;;;;;;1.75;100.00;99934.25;2091054;28;20275;-74
2022/01/14 04:50:47;;;;;;;51.40;33.67;;;;;;;1.76;100.00;99939.28;2090466;28;20210;-73
2022/01/14 04:51:55;;;;;;;53.67;35.35;;;;;;;1.76;100.00;99931.41;2089892;28;20240;-73
2022/01/14 04:52:57;;;;;;;44.97;33.45;;;;;;;1.83;100.00;99928.72;2090902;28;20179;-73
2022/01/14 04:54:00;;;;;;;52.80;35.25;;;;;;;1.81;100.00;99938.63;2090181;28;20210;-73
2022/01/14 04:55:01;;;;;;;48.78;33.53;;;;;;;1.78;100.00;99928.56;2081994;28;20207;-73
2022/01/14 04:56:02;;;;;;;49.47;35.10;;;;;;;1.80;100.00;99916.78;2090325;28;20195;-73
2022/01/14 04:57:05;;;;;;;47.80;34.58;;;;;;;1.74;100.00;99908.94;2090908;28;20183;-73
2022/01/14 04:58:07;;;;;;;53.90;36.45;;;;;;;1.79;100.00;99917.00;2090853;28;20195;-73
2022/01/14 04:59:10;;;;;;;52.35;34.92;;;;;;;1.77;100.00;99913.78;2091032;28;20242;-73
2022/01/14 05:00:17;;;;;;;48.03;34.78;;;;;;;1.75;100.00;99942.16;2090851;28;20191;-73
2022/01/14 05:01:17;;;;;;;52.97;36.05;;;;;;;1.86;100.00;99923.00;2090830;28;20544;-73
2022/01/14 05:02:19;;;;;;;54.53;36.07;;;;;;;1.83;100.00;99919.00;2090201;28;20640;-73
2022/01/14 05:03:21;;;;;;;60.30;37.65;;;;;;;1.86;100.00;99915.13;2090378;28;20210;-73
2022/01/14 05:04:23;;;;;;;51.60;36.88;;;;;;;1.77;100.00;99953.25;2090313;28;20539;-73
2022/01/14 05:05:28;;;;;;;56.75;36.95;;;;;;;1.80;100.00;99913.34;2090474;28;20680;-73